sensor_id;sensor_type;location;lat;lon;timestamp;P1;durP1;ratioP1;P2;durP2;ratioP2
50417;SDS011;36346;48.280;14.292;2023-01-29T00:01:32;22.99;;;22.57;;
50417;SDS011;36346;48.280;14.292;2023-01-29T00:03:59;22.71;;;22.23;;
50417;SDS011;36346;48.280;14.292;2023-01-29T00:06:29;23.60;;;22.92;;
50417;SDS011;36346;48.280;14.292;2023-01-29T00:08:57;22.39;;;21.96;;
50417;SDS011;36346;48.280;14.292;2023-01-29T00:11:25;23.18;;;22.75;;
50417;SDS011;36346;48.280;14.292;2023-01-29T00:13:54;22.86;;;22.41;;
50417;SDS011;36346;48.280;14.292;2023-01-29T00:16:22;23.27;;;22.95;;
50417;SDS011;36346;48.280;14.292;2023-01-29T00:18:50;23.48;;;23.13;;
50417;SDS011;36346;48.280;14.292;2023-01-29T00:21:19;23.34;;;22.88;;
50417;SDS011;36346;48.280;14.292;2023-01-29T00:23:48;22.92;;;22.57;;
50417;SDS011;36346;48.280;14.292;2023-01-29T00:26:17;23.62;;;23.22;;
50417;SDS011;36346;48.280;14.292;2023-01-29T00:28:47;24.00;;;23.58;;
50417;SDS011;36346;48.280;14.292;2023-01-29T00:31:16;23.07;;;22.71;;
50417;SDS011;36346;48.280;14.292;2023-01-29T00:33:48;23.88;;;23.46;;
50417;SDS011;36346;48.280;14.292;2023-01-29T00:36:17;23.77;;;23.32;;
50417;SDS011;36346;48.280;14.292;2023-01-29T00:38:53;24.80;;;24.40;;
50417;SDS011;36346;48.280;14.292;2023-01-29T00:41:26;24.29;;;23.79;;
50417;SDS011;36346;48.280;14.292;2023-01-29T00:44:15;23.86;;;23.36;;
50417;SDS011;36346;48.280;14.292;2023-01-29T00:47:02;24.78;;;24.22;;
50417;SDS011;36346;48.280;14.292;2023-01-29T00:49:32;24.67;;;24.06;;
50417;SDS011;36346;48.280;14.292;2023-01-29T00:52:00;24.85;;;24.43;;
50417;SDS011;36346;48.280;14.292;2023-01-29T00:54:47;24.38;;;23.90;;
50417;SDS011;36346;48.280;14.292;2023-01-29T00:57:15;24.42;;;24.09;;
50417;SDS011;36346;48.280;14.292;2023-01-29T00:59:44;24.51;;;24.03;;
50417;SDS011;36346;48.280;14.292;2023-01-29T01:02:12;23.04;;;22.68;;
50417;SDS011;36346;48.280;14.292;2023-01-29T01:04:58;22.15;;;21.74;;
50417;SDS011;36346;48.280;14.292;2023-01-29T01:07:54;23.49;;;23.16;;
50417;SDS011;36346;48.280;14.292;2023-01-29T01:10:26;24.96;;;24.47;;
50417;SDS011;36346;48.280;14.292;2023-01-29T01:12:58;25.60;;;25.19;;
50417;SDS011;36346;48.280;14.292;2023-01-29T01:15:36;26.49;;;25.88;;
50417;SDS011;36346;48.280;14.292;2023-01-29T01:18:06;24.64;;;24.26;;
50417;SDS011;36346;48.280;14.292;2023-01-29T01:20:35;24.61;;;24.20;;
50417;SDS011;36346;48.280;14.292;2023-01-29T01:23:28;22.33;;;21.88;;
50417;SDS011;36346;48.280;14.292;2023-01-29T01:25:56;20.30;;;19.88;;
50417;SDS011;36346;48.280;14.292;2023-01-29T01:28:24;20.70;;;20.30;;
50417;SDS011;36346;48.280;14.292;2023-01-29T01:30:53;19.39;;;18.92;;
50417;SDS011;36346;48.280;14.292;2023-01-29T01:33:22;17.22;;;16.88;;
50417;SDS011;36346;48.280;14.292;2023-01-29T01:35:51;17.24;;;16.94;;
50417;SDS011;36346;48.280;14.292;2023-01-29T01:38:21;16.96;;;16.58;;
50417;SDS011;36346;48.280;14.292;2023-01-29T01:40:49;17.10;;;16.64;;
50417;SDS011;36346;48.280;14.292;2023-01-29T01:43:18;17.47;;;16.96;;
50417;SDS011;36346;48.280;14.292;2023-01-29T01:45:46;17.67;;;17.29;;
50417;SDS011;36346;48.280;14.292;2023-01-29T01:48:24;17.53;;;17.26;;
50417;SDS011;36346;48.280;14.292;2023-01-29T01:51:01;17.32;;;17.05;;
50417;SDS011;36346;48.280;14.292;2023-01-29T01:53:37;17.52;;;17.32;;
50417;SDS011;36346;48.280;14.292;2023-01-29T01:56:20;17.33;;;17.08;;
50417;SDS011;36346;48.280;14.292;2023-01-29T01:58:54;17.94;;;17.60;;
50417;SDS011;36346;48.280;14.292;2023-01-29T02:01:26;18.68;;;18.23;;
50417;SDS011;36346;48.280;14.292;2023-01-29T02:03:56;18.42;;;18.04;;
50417;SDS011;36346;48.280;14.292;2023-01-29T02:06:51;18.67;;;18.27;;
50417;SDS011;36346;48.280;14.292;2023-01-29T02:10:02;18.94;;;18.72;;
50417;SDS011;36346;48.280;14.292;2023-01-29T02:12:42;19.27;;;18.94;;
50417;SDS011;36346;48.280;14.292;2023-01-29T02:15:11;20.98;;;20.55;;
50417;SDS011;36346;48.280;14.292;2023-01-29T02:17:39;20.50;;;20.12;;
50417;SDS011;36346;48.280;14.292;2023-01-29T02:20:17;21.74;;;21.12;;
50417;SDS011;36346;48.280;14.292;2023-01-29T02:25:52;21.10;;;20.74;;
50417;SDS011;36346;48.280;14.292;2023-01-29T02:28:48;21.26;;;20.85;;
50417;SDS011;36346;48.280;14.292;2023-01-29T02:31:51;21.18;;;20.74;;
50417;SDS011;36346;48.280;14.292;2023-01-29T02:37:35;20.24;;;19.88;;
50417;SDS011;36346;48.280;14.292;2023-01-29T02:40:12;20.99;;;20.53;;
50417;SDS011;36346;48.280;14.292;2023-01-29T02:43:14;21.06;;;20.45;;
50417;SDS011;36346;48.280;14.292;2023-01-29T02:46:03;19.86;;;19.53;;
50417;SDS011;36346;48.280;14.292;2023-01-29T02:54:55;21.14;;;20.71;;
50417;SDS011;36346;48.280;14.292;2023-01-29T02:57:33;21.89;;;21.30;;
50417;SDS011;36346;48.280;14.292;2023-01-29T03:00:09;20.51;;;20.05;;
50417;SDS011;36346;48.280;14.292;2023-01-29T03:02:45;21.99;;;21.50;;
50417;SDS011;36346;48.280;14.292;2023-01-29T03:05:36;21.33;;;20.99;;
50417;SDS011;36346;48.280;14.292;2023-01-29T03:08:37;22.29;;;21.80;;
50417;SDS011;36346;48.280;14.292;2023-01-29T03:11:13;21.49;;;20.90;;
50417;SDS011;36346;48.280;14.292;2023-01-29T03:13:44;20.47;;;19.99;;
50417;SDS011;36346;48.280;14.292;2023-01-29T03:21:56;20.33;;;19.90;;
50417;SDS011;36346;48.280;14.292;2023-01-29T03:27:49;20.22;;;19.98;;
50417;SDS011;36346;48.280;14.292;2023-01-29T03:30:46;20.29;;;19.90;;
50417;SDS011;36346;48.280;14.292;2023-01-29T03:34:04;20.67;;;19.92;;
50417;SDS011;36346;48.280;14.292;2023-01-29T03:36:48;19.73;;;19.36;;
50417;SDS011;36346;48.280;14.292;2023-01-29T03:39:23;20.34;;;19.94;;
50417;SDS011;36346;48.280;14.292;2023-01-29T03:41:59;20.64;;;20.22;;
50417;SDS011;36346;48.280;14.292;2023-01-29T03:44:57;20.78;;;20.30;;
50417;SDS011;36346;48.280;14.292;2023-01-29T03:51:10;21.61;;;21.03;;
50417;SDS011;36346;48.280;14.292;2023-01-29T03:59:14;22.99;;;22.16;;
50417;SDS011;36346;48.280;14.292;2023-01-29T04:02:12;22.02;;;21.29;;
50417;SDS011;36346;48.280;14.292;2023-01-29T04:04:58;22.02;;;21.43;;
50417;SDS011;36346;48.280;14.292;2023-01-29T04:07:34;22.78;;;22.22;;
50417;SDS011;36346;48.280;14.292;2023-01-29T04:10:28;22.12;;;21.66;;
50417;SDS011;36346;48.280;14.292;2023-01-29T04:13:20;22.60;;;21.98;;
50417;SDS011;36346;48.280;14.292;2023-01-29T04:15:55;22.24;;;21.75;;
50417;SDS011;36346;48.280;14.292;2023-01-29T04:18:52;22.20;;;21.74;;
50417;SDS011;36346;48.280;14.292;2023-01-29T04:21:30;22.71;;;22.26;;
50417;SDS011;36346;48.280;14.292;2023-01-29T04:23:59;23.18;;;22.69;;
50417;SDS011;36346;48.280;14.292;2023-01-29T04:32:17;23.82;;;23.24;;
50417;SDS011;36346;48.280;14.292;2023-01-29T04:40:51;24.14;;;23.48;;
50417;SDS011;36346;48.280;14.292;2023-01-29T04:43:41;24.17;;;23.63;;
50417;SDS011;36346;48.280;14.292;2023-01-29T04:46:30;23.70;;;23.16;;
50417;SDS011;36346;48.280;14.292;2023-01-29T04:52:33;24.00;;;23.41;;
50417;SDS011;36346;48.280;14.292;2023-01-29T04:55:37;24.51;;;23.67;;
50417;SDS011;36346;48.280;14.292;2023-01-29T04:58:46;24.73;;;23.98;;
50417;SDS011;36346;48.280;14.292;2023-01-29T05:01:34;23.86;;;23.20;;
50417;SDS011;36346;48.280;14.292;2023-01-29T05:04:06;24.51;;;23.94;;
50417;SDS011;36346;48.280;14.292;2023-01-29T05:06:42;24.80;;;24.02;;
50417;SDS011;36346;48.280;14.292;2023-01-29T05:09:14;23.56;;;22.94;;
50417;SDS011;36346;48.280;14.292;2023-01-29T05:12:13;23.85;;;23.26;;
50417;SDS011;36346;48.280;14.292;2023-01-29T05:14:44;24.93;;;24.19;;
50417;SDS011;36346;48.280;14.292;2023-01-29T05:17:15;25.02;;;24.26;;
50417;SDS011;36346;48.280;14.292;2023-01-29T05:19:48;25.34;;;24.47;;
50417;SDS011;36346;48.280;14.292;2023-01-29T05:22:41;25.19;;;24.45;;
50417;SDS011;36346;48.280;14.292;2023-01-29T05:25:19;24.89;;;24.34;;
50417;SDS011;36346;48.280;14.292;2023-01-29T05:27:56;25.12;;;24.58;;
50417;SDS011;36346;48.280;14.292;2023-01-29T05:30:44;25.62;;;25.09;;
50417;SDS011;36346;48.280;14.292;2023-01-29T05:33:16;25.05;;;24.35;;
50417;SDS011;36346;48.280;14.292;2023-01-29T05:35:48;24.92;;;24.31;;
50417;SDS011;36346;48.280;14.292;2023-01-29T05:38:17;25.35;;;24.75;;
50417;SDS011;36346;48.280;14.292;2023-01-29T05:40:47;25.85;;;24.99;;
50417;SDS011;36346;48.280;14.292;2023-01-29T05:43:21;26.18;;;25.52;;
50417;SDS011;36346;48.280;14.292;2023-01-29T05:45:55;26.59;;;25.76;;
50417;SDS011;36346;48.280;14.292;2023-01-29T05:48:28;26.24;;;25.64;;
50417;SDS011;36346;48.280;14.292;2023-01-29T05:51:01;26.18;;;25.56;;
50417;SDS011;36346;48.280;14.292;2023-01-29T05:53:31;26.68;;;26.01;;
50417;SDS011;36346;48.280;14.292;2023-01-29T05:56:00;27.34;;;26.45;;
50417;SDS011;36346;48.280;14.292;2023-01-29T05:58:30;27.13;;;26.22;;
50417;SDS011;36346;48.280;14.292;2023-01-29T06:01:25;26.97;;;25.97;;
50417;SDS011;36346;48.280;14.292;2023-01-29T06:03:53;26.48;;;25.64;;
50417;SDS011;36346;48.280;14.292;2023-01-29T06:06:22;26.97;;;26.20;;
50417;SDS011;36346;48.280;14.292;2023-01-29T06:08:49;26.38;;;25.77;;
50417;SDS011;36346;48.280;14.292;2023-01-29T06:11:19;27.90;;;27.04;;
50417;SDS011;36346;48.280;14.292;2023-01-29T06:13:48;27.45;;;26.68;;
50417;SDS011;36346;48.280;14.292;2023-01-29T06:16:17;28.19;;;27.31;;
50417;SDS011;36346;48.280;14.292;2023-01-29T06:18:45;28.37;;;27.66;;
50417;SDS011;36346;48.280;14.292;2023-01-29T06:21:18;26.89;;;26.26;;
50417;SDS011;36346;48.280;14.292;2023-01-29T06:23:51;26.95;;;26.31;;
50417;SDS011;36346;48.280;14.292;2023-01-29T06:26:20;26.43;;;25.80;;
50417;SDS011;36346;48.280;14.292;2023-01-29T06:28:48;26.50;;;25.76;;
50417;SDS011;36346;48.280;14.292;2023-01-29T06:31:17;27.31;;;26.44;;
50417;SDS011;36346;48.280;14.292;2023-01-29T06:34:06;27.16;;;26.25;;
50417;SDS011;36346;48.280;14.292;2023-01-29T06:36:35;26.23;;;25.53;;
50417;SDS011;36346;48.280;14.292;2023-01-29T06:39:03;25.52;;;24.93;;
50417;SDS011;36346;48.280;14.292;2023-01-29T06:41:32;25.55;;;24.84;;
50417;SDS011;36346;48.280;14.292;2023-01-29T06:44:01;23.12;;;22.57;;
50417;SDS011;36346;48.280;14.292;2023-01-29T06:46:32;25.62;;;24.97;;
50417;SDS011;36346;48.280;14.292;2023-01-29T06:49:01;21.88;;;21.41;;
50417;SDS011;36346;48.280;14.292;2023-01-29T06:51:32;21.40;;;20.93;;
50417;SDS011;36346;48.280;14.292;2023-01-29T06:54:01;21.68;;;21.04;;
50417;SDS011;36346;48.280;14.292;2023-01-29T06:56:31;22.80;;;22.10;;
50417;SDS011;36346;48.280;14.292;2023-01-29T06:58:59;21.85;;;21.10;;
50417;SDS011;36346;48.280;14.292;2023-01-29T07:01:30;21.99;;;21.48;;
50417;SDS011;36346;48.280;14.292;2023-01-29T07:04:03;22.36;;;21.69;;
50417;SDS011;36346;48.280;14.292;2023-01-29T07:06:33;21.52;;;20.96;;
50417;SDS011;36346;48.280;14.292;2023-01-29T07:09:04;21.29;;;20.65;;
50417;SDS011;36346;48.280;14.292;2023-01-29T07:11:34;22.34;;;21.59;;
50417;SDS011;36346;48.280;14.292;2023-01-29T07:14:11;21.92;;;21.34;;
50417;SDS011;36346;48.280;14.292;2023-01-29T07:16:40;21.61;;;20.96;;
50417;SDS011;36346;48.280;14.292;2023-01-29T07:19:09;20.92;;;20.37;;
50417;SDS011;36346;48.280;14.292;2023-01-29T07:21:37;20.46;;;19.97;;
50417;SDS011;36346;48.280;14.292;2023-01-29T07:24:06;21.16;;;20.64;;
50417;SDS011;36346;48.280;14.292;2023-01-29T07:26:35;21.16;;;20.57;;
50417;SDS011;36346;48.280;14.292;2023-01-29T07:29:03;21.66;;;20.92;;
50417;SDS011;36346;48.280;14.292;2023-01-29T07:31:31;21.21;;;20.53;;
50417;SDS011;36346;48.280;14.292;2023-01-29T07:34:00;21.33;;;20.72;;
50417;SDS011;36346;48.280;14.292;2023-01-29T07:36:31;21.25;;;20.63;;
50417;SDS011;36346;48.280;14.292;2023-01-29T07:39:02;21.30;;;20.75;;
50417;SDS011;36346;48.280;14.292;2023-01-29T07:41:30;20.63;;;20.22;;
50417;SDS011;36346;48.280;14.292;2023-01-29T07:43:59;20.39;;;19.99;;
50417;SDS011;36346;48.280;14.292;2023-01-29T07:46:28;21.27;;;20.78;;
50417;SDS011;36346;48.280;14.292;2023-01-29T07:49:21;20.77;;;20.26;;
50417;SDS011;36346;48.280;14.292;2023-01-29T07:51:50;21.55;;;21.01;;
50417;SDS011;36346;48.280;14.292;2023-01-29T07:54:17;21.11;;;20.70;;
50417;SDS011;36346;48.280;14.292;2023-01-29T07:56:46;20.98;;;20.42;;
50417;SDS011;36346;48.280;14.292;2023-01-29T07:59:14;20.75;;;20.14;;
50417;SDS011;36346;48.280;14.292;2023-01-29T08:01:42;21.02;;;20.47;;
50417;SDS011;36346;48.280;14.292;2023-01-29T08:04:10;20.87;;;20.37;;
50417;SDS011;36346;48.280;14.292;2023-01-29T08:06:39;20.24;;;19.82;;
50417;SDS011;36346;48.280;14.292;2023-01-29T08:09:06;19.36;;;18.98;;
50417;SDS011;36346;48.280;14.292;2023-01-29T08:11:35;19.74;;;19.30;;
50417;SDS011;36346;48.280;14.292;2023-01-29T08:14:06;19.62;;;19.17;;
50417;SDS011;36346;48.280;14.292;2023-01-29T08:16:36;19.12;;;18.71;;
50417;SDS011;36346;48.280;14.292;2023-01-29T08:19:04;19.10;;;18.66;;
50417;SDS011;36346;48.280;14.292;2023-01-29T08:21:32;18.58;;;18.11;;
50417;SDS011;36346;48.280;14.292;2023-01-29T08:24:00;18.04;;;17.65;;
50417;SDS011;36346;48.280;14.292;2023-01-29T08:26:33;19.25;;;18.86;;
50417;SDS011;36346;48.280;14.292;2023-01-29T08:29:05;18.74;;;18.37;;
50417;SDS011;36346;48.280;14.292;2023-01-29T08:31:33;19.08;;;18.62;;
50417;SDS011;36346;48.280;14.292;2023-01-29T08:34:02;19.04;;;18.57;;
50417;SDS011;36346;48.280;14.292;2023-01-29T08:36:30;19.11;;;18.74;;
50417;SDS011;36346;48.280;14.292;2023-01-29T08:38:58;18.75;;;18.34;;
50417;SDS011;36346;48.280;14.292;2023-01-29T08:41:28;18.96;;;18.61;;
50417;SDS011;36346;48.280;14.292;2023-01-29T08:43:56;19.20;;;18.89;;
50417;SDS011;36346;48.280;14.292;2023-01-29T08:46:50;17.03;;;16.78;;
50417;SDS011;36346;48.280;14.292;2023-01-29T08:49:19;18.68;;;18.40;;
50417;SDS011;36346;48.280;14.292;2023-01-29T08:51:47;16.39;;;16.17;;
50417;SDS011;36346;48.280;14.292;2023-01-29T08:54:18;19.67;;;19.19;;
50417;SDS011;36346;48.280;14.292;2023-01-29T08:56:48;17.68;;;17.30;;
50417;SDS011;36346;48.280;14.292;2023-01-29T08:59:16;16.89;;;16.55;;
50417;SDS011;36346;48.280;14.292;2023-01-29T09:01:44;16.85;;;16.51;;
50417;SDS011;36346;48.280;14.292;2023-01-29T09:04:12;15.60;;;15.27;;
50417;SDS011;36346;48.280;14.292;2023-01-29T09:06:41;14.77;;;14.52;;
50417;SDS011;36346;48.280;14.292;2023-01-29T09:09:09;14.65;;;14.40;;
50417;SDS011;36346;48.280;14.292;2023-01-29T09:11:38;13.95;;;13.68;;
50417;SDS011;36346;48.280;14.292;2023-01-29T09:14:08;14.14;;;13.91;;
50417;SDS011;36346;48.280;14.292;2023-01-29T09:16:37;14.04;;;13.92;;
50417;SDS011;36346;48.280;14.292;2023-01-29T09:19:06;13.86;;;13.72;;
50417;SDS011;36346;48.280;14.292;2023-01-29T09:21:34;14.06;;;13.88;;
50417;SDS011;36346;48.280;14.292;2023-01-29T09:24:02;14.10;;;13.86;;
50417;SDS011;36346;48.280;14.292;2023-01-29T09:26:32;13.58;;;13.27;;
50417;SDS011;36346;48.280;14.292;2023-01-29T09:29:00;13.69;;;13.43;;
50417;SDS011;36346;48.280;14.292;2023-01-29T09:31:28;13.08;;;12.83;;
50417;SDS011;36346;48.280;14.292;2023-01-29T09:33:56;13.15;;;12.77;;
50417;SDS011;36346;48.280;14.292;2023-01-29T09:36:24;12.85;;;12.59;;
50417;SDS011;36346;48.280;14.292;2023-01-29T09:38:53;13.38;;;13.05;;
50417;SDS011;36346;48.280;14.292;2023-01-29T09:44:12;13.66;;;13.37;;
50417;SDS011;36346;48.280;14.292;2023-01-29T09:47:01;13.30;;;13.15;;
50417;SDS011;36346;48.280;14.292;2023-01-29T09:49:59;13.66;;;13.42;;
50417;SDS011;36346;48.280;14.292;2023-01-29T09:52:30;12.95;;;12.73;;
50417;SDS011;36346;48.280;14.292;2023-01-29T09:55:21;12.77;;;12.62;;
50417;SDS011;36346;48.280;14.292;2023-01-29T10:00:31;12.95;;;12.84;;
50417;SDS011;36346;48.280;14.292;2023-01-29T10:03:53;12.78;;;12.57;;
50417;SDS011;36346;48.280;14.292;2023-01-29T10:22:59;10.92;;;10.79;;
50417;SDS011;36346;48.280;14.292;2023-01-29T10:25:53;11.56;;;11.47;;
50417;SDS011;36346;48.280;14.292;2023-01-29T10:31:05;10.77;;;10.73;;
50417;SDS011;36346;48.280;14.292;2023-01-29T10:34:02;10.28;;;10.19;;
50417;SDS011;36346;48.280;14.292;2023-01-29T10:36:42;11.14;;;11.06;;
50417;SDS011;36346;48.280;14.292;2023-01-29T10:39:22;10.24;;;10.07;;
50417;SDS011;36346;48.280;14.292;2023-01-29T10:42:19;10.12;;;10.11;;
50417;SDS011;36346;48.280;14.292;2023-01-29T10:44:59;9.56;;;9.50;;
50417;SDS011;36346;48.280;14.292;2023-01-29T10:50:49;10.01;;;9.97;;
50417;SDS011;36346;48.280;14.292;2023-01-29T10:53:40;10.74;;;10.67;;
50417;SDS011;36346;48.280;14.292;2023-01-29T10:56:30;9.23;;;9.23;;
50417;SDS011;36346;48.280;14.292;2023-01-29T10:59:20;10.32;;;10.27;;
50417;SDS011;36346;48.280;14.292;2023-01-29T11:01:58;9.71;;;9.53;;
50417;SDS011;36346;48.280;14.292;2023-01-29T11:04:27;9.07;;;8.98;;
50417;SDS011;36346;48.280;14.292;2023-01-29T11:06:58;8.42;;;8.40;;
50417;SDS011;36346;48.280;14.292;2023-01-29T11:09:28;8.81;;;8.79;;
50417;SDS011;36346;48.280;14.292;2023-01-29T11:12:00;8.41;;;8.41;;
50417;SDS011;36346;48.280;14.292;2023-01-29T11:15:02;8.38;;;8.38;;
50417;SDS011;36346;48.280;14.292;2023-01-29T11:17:59;8.39;;;8.36;;
50417;SDS011;36346;48.280;14.292;2023-01-29T11:20:29;8.98;;;8.94;;
50417;SDS011;36346;48.280;14.292;2023-01-29T11:22:59;8.71;;;8.70;;
50417;SDS011;36346;48.280;14.292;2023-01-29T11:25:26;8.60;;;8.52;;
50417;SDS011;36346;48.280;14.292;2023-01-29T11:27:59;9.19;;;9.15;;
50417;SDS011;36346;48.280;14.292;2023-01-29T11:30:32;8.99;;;8.96;;
50417;SDS011;36346;48.280;14.292;2023-01-29T11:35:33;8.79;;;8.72;;
50417;SDS011;36346;48.280;14.292;2023-01-29T11:40:50;9.32;;;9.30;;
50417;SDS011;36346;48.280;14.292;2023-01-29T11:43:21;8.67;;;8.65;;
50417;SDS011;36346;48.280;14.292;2023-01-29T11:45:53;8.45;;;8.42;;
50417;SDS011;36346;48.280;14.292;2023-01-29T11:48:47;8.37;;;8.35;;
50417;SDS011;36346;48.280;14.292;2023-01-29T11:51:22;10.26;;;10.23;;
50417;SDS011;36346;48.280;14.292;2023-01-29T11:54:20;8.77;;;8.72;;
50417;SDS011;36346;48.280;14.292;2023-01-29T11:56:56;8.61;;;8.60;;
50417;SDS011;36346;48.280;14.292;2023-01-29T11:59:39;8.93;;;8.92;;
50417;SDS011;36346;48.280;14.292;2023-01-29T12:04:49;9.01;;;8.94;;
50417;SDS011;36346;48.280;14.292;2023-01-29T12:07:17;9.27;;;9.24;;
50417;SDS011;36346;48.280;14.292;2023-01-29T12:09:47;8.89;;;8.83;;
50417;SDS011;36346;48.280;14.292;2023-01-29T12:12:41;8.59;;;8.58;;
50417;SDS011;36346;48.280;14.292;2023-01-29T12:15:21;9.74;;;9.70;;
50417;SDS011;36346;48.280;14.292;2023-01-29T12:17:56;8.69;;;8.64;;
50417;SDS011;36346;48.280;14.292;2023-01-29T12:20:34;8.74;;;8.74;;
50417;SDS011;36346;48.280;14.292;2023-01-29T12:26:10;9.05;;;9.05;;
50417;SDS011;36346;48.280;14.292;2023-01-29T12:31:21;9.51;;;9.49;;
50417;SDS011;36346;48.280;14.292;2023-01-29T12:33:58;8.73;;;8.71;;
50417;SDS011;36346;48.280;14.292;2023-01-29T12:36:48;9.24;;;9.20;;
50417;SDS011;36346;48.280;14.292;2023-01-29T12:39:22;9.20;;;9.19;;
50417;SDS011;36346;48.280;14.292;2023-01-29T12:44:49;9.58;;;9.50;;
50417;SDS011;36346;48.280;14.292;2023-01-29T12:47:26;9.82;;;9.79;;
50417;SDS011;36346;48.280;14.292;2023-01-29T12:50:19;9.66;;;9.65;;
50417;SDS011;36346;48.280;14.292;2023-01-29T12:58:14;9.92;;;9.89;;
50417;SDS011;36346;48.280;14.292;2023-01-29T13:00:56;11.39;;;11.25;;
50417;SDS011;36346;48.280;14.292;2023-01-29T13:04:21;10.00;;;9.88;;
50417;SDS011;36346;48.280;14.292;2023-01-29T13:07:20;10.01;;;9.95;;
50417;SDS011;36346;48.280;14.292;2023-01-29T13:09:56;10.06;;;10.05;;
50417;SDS011;36346;48.280;14.292;2023-01-29T13:16:29;10.74;;;10.68;;
50417;SDS011;36346;48.280;14.292;2023-01-29T13:19:31;11.42;;;11.27;;
50417;SDS011;36346;48.280;14.292;2023-01-29T13:22:31;11.41;;;11.36;;
50417;SDS011;36346;48.280;14.292;2023-01-29T13:25:03;10.90;;;10.87;;
50417;SDS011;36346;48.280;14.292;2023-01-29T13:27:32;11.04;;;11.00;;
50417;SDS011;36346;48.280;14.292;2023-01-29T13:30:03;11.20;;;11.17;;
50417;SDS011;36346;48.280;14.292;2023-01-29T13:32:32;11.44;;;11.29;;
50417;SDS011;36346;48.280;14.292;2023-01-29T13:35:11;11.00;;;10.95;;
50417;SDS011;36346;48.280;14.292;2023-01-29T13:37:47;11.58;;;11.40;;
50417;SDS011;36346;48.280;14.292;2023-01-29T13:40:23;11.46;;;11.31;;
50417;SDS011;36346;48.280;14.292;2023-01-29T13:42:54;11.86;;;11.83;;
50417;SDS011;36346;48.280;14.292;2023-01-29T13:45:30;11.99;;;11.96;;
50417;SDS011;36346;48.280;14.292;2023-01-29T13:48:31;12.04;;;11.97;;
50417;SDS011;36346;48.280;14.292;2023-01-29T13:50:59;12.12;;;12.01;;
50417;SDS011;36346;48.280;14.292;2023-01-29T13:58:56;12.37;;;12.35;;
50417;SDS011;36346;48.280;14.292;2023-01-29T14:06:50;11.22;;;11.16;;
50417;SDS011;36346;48.280;14.292;2023-01-29T14:09:32;11.90;;;11.60;;
50417;SDS011;36346;48.280;14.292;2023-01-29T14:17:24;12.13;;;12.10;;
50417;SDS011;36346;48.280;14.292;2023-01-29T14:20:00;11.84;;;11.84;;
50417;SDS011;36346;48.280;14.292;2023-01-29T14:22:31;12.33;;;12.16;;
50417;SDS011;36346;48.280;14.292;2023-01-29T14:25:02;11.96;;;11.91;;
50417;SDS011;36346;48.280;14.292;2023-01-29T14:27:33;11.85;;;11.81;;
50417;SDS011;36346;48.280;14.292;2023-01-29T14:30:05;11.65;;;11.56;;
50417;SDS011;36346;48.280;14.292;2023-01-29T14:32:39;11.89;;;11.83;;
50417;SDS011;36346;48.280;14.292;2023-01-29T14:37:49;12.93;;;12.88;;
50417;SDS011;36346;48.280;14.292;2023-01-29T14:40:23;12.75;;;12.63;;
50417;SDS011;36346;48.280;14.292;2023-01-29T14:43:18;12.36;;;12.29;;
50417;SDS011;36346;48.280;14.292;2023-01-29T14:45:50;12.64;;;12.62;;
50417;SDS011;36346;48.280;14.292;2023-01-29T14:48:34;12.21;;;12.07;;
50417;SDS011;36346;48.280;14.292;2023-01-29T14:51:31;16.74;;;16.69;;
50417;SDS011;36346;48.280;14.292;2023-01-29T14:54:11;12.97;;;12.95;;
50417;SDS011;36346;48.280;14.292;2023-01-29T14:56:49;12.38;;;12.27;;
50417;SDS011;36346;48.280;14.292;2023-01-29T14:59:30;11.77;;;11.75;;
50417;SDS011;36346;48.280;14.292;2023-01-29T15:02:11;12.45;;;12.37;;
50417;SDS011;36346;48.280;14.292;2023-01-29T15:04:49;13.09;;;12.98;;
50417;SDS011;36346;48.280;14.292;2023-01-29T15:07:25;13.23;;;13.12;;
50417;SDS011;36346;48.280;14.292;2023-01-29T15:12:55;14.15;;;14.01;;
50417;SDS011;36346;48.280;14.292;2023-01-29T15:15:33;13.58;;;13.55;;
50417;SDS011;36346;48.280;14.292;2023-01-29T15:18:08;13.68;;;13.62;;
50417;SDS011;36346;48.280;14.292;2023-01-29T15:20:42;13.09;;;13.09;;
50417;SDS011;36346;48.280;14.292;2023-01-29T15:23:26;13.66;;;13.64;;
50417;SDS011;36346;48.280;14.292;2023-01-29T15:26:01;17.64;;;17.51;;
50417;SDS011;36346;48.280;14.292;2023-01-29T15:28:33;14.73;;;14.66;;
50417;SDS011;36346;48.280;14.292;2023-01-29T15:31:26;13.47;;;13.46;;
50417;SDS011;36346;48.280;14.292;2023-01-29T15:33:58;13.80;;;13.79;;
50417;SDS011;36346;48.280;14.292;2023-01-29T15:36:35;14.22;;;14.16;;
50417;SDS011;36346;48.280;14.292;2023-01-29T15:39:14;15.48;;;15.10;;
50417;SDS011;36346;48.280;14.292;2023-01-29T15:41:43;14.36;;;14.26;;
50417;SDS011;36346;48.280;14.292;2023-01-29T15:44:13;14.65;;;14.52;;
50417;SDS011;36346;48.280;14.292;2023-01-29T15:46:55;14.93;;;14.80;;
50417;SDS011;36346;48.280;14.292;2023-01-29T15:49:50;14.81;;;14.74;;
50417;SDS011;36346;48.280;14.292;2023-01-29T15:52:27;15.08;;;15.00;;
50417;SDS011;36346;48.280;14.292;2023-01-29T15:55:02;14.87;;;14.86;;
50417;SDS011;36346;48.280;14.292;2023-01-29T15:57:34;16.67;;;16.58;;
50417;SDS011;36346;48.280;14.292;2023-01-29T16:00:04;16.47;;;16.34;;
50417;SDS011;36346;48.280;14.292;2023-01-29T16:02:58;18.81;;;18.77;;
50417;SDS011;36346;48.280;14.292;2023-01-29T16:05:30;16.61;;;16.55;;
50417;SDS011;36346;48.280;14.292;2023-01-29T16:07:59;16.45;;;16.37;;
50417;SDS011;36346;48.280;14.292;2023-01-29T16:10:29;16.03;;;15.98;;
50417;SDS011;36346;48.280;14.292;2023-01-29T16:12:58;15.24;;;15.23;;
50417;SDS011;36346;48.280;14.292;2023-01-29T16:15:37;15.48;;;15.48;;
50417;SDS011;36346;48.280;14.292;2023-01-29T16:18:28;15.44;;;15.37;;
50417;SDS011;36346;48.280;14.292;2023-01-29T16:21:29;15.46;;;15.38;;
50417;SDS011;36346;48.280;14.292;2023-01-29T16:24:05;15.31;;;15.24;;
50417;SDS011;36346;48.280;14.292;2023-01-29T16:26:44;15.53;;;15.46;;
50417;SDS011;36346;48.280;14.292;2023-01-29T16:29:40;15.56;;;15.44;;
50417;SDS011;36346;48.280;14.292;2023-01-29T16:32:08;14.99;;;14.98;;
50417;SDS011;36346;48.280;14.292;2023-01-29T16:34:42;15.95;;;15.81;;
50417;SDS011;36346;48.280;14.292;2023-01-29T16:37:22;16.88;;;16.49;;
50417;SDS011;36346;48.280;14.292;2023-01-29T16:39:53;16.58;;;16.38;;
50417;SDS011;36346;48.280;14.292;2023-01-29T16:42:22;16.23;;;16.13;;
50417;SDS011;36346;48.280;14.292;2023-01-29T16:45:02;17.86;;;17.71;;
50417;SDS011;36346;48.280;14.292;2023-01-29T16:47:36;16.92;;;16.64;;
50417;SDS011;36346;48.280;14.292;2023-01-29T16:53:04;16.39;;;16.38;;
50417;SDS011;36346;48.280;14.292;2023-01-29T16:55:51;16.33;;;16.31;;
50417;SDS011;36346;48.280;14.292;2023-01-29T16:58:20;16.68;;;16.61;;
50417;SDS011;36346;48.280;14.292;2023-01-29T17:01:03;17.53;;;17.39;;
50417;SDS011;36346;48.280;14.292;2023-01-29T17:03:35;18.85;;;18.68;;
50417;SDS011;36346;48.280;14.292;2023-01-29T17:06:08;18.70;;;18.66;;
50417;SDS011;36346;48.280;14.292;2023-01-29T17:08:39;17.84;;;17.69;;